Time;durP1;ratioP1;P1;durP2;ratioP2;P2;SDS_P1;SDS_P2;PMS_P1;PMS_P2;Temp;Humidity;BMP_temperature;BMP_pressure;BME280_temperature;BME280_humidity;BME280_pressure;Samples;Min_cycle;Max_cycle;Signal;HPM_P1;HPM_P2
2022/08/05 00:02:02;;;;;;;7.33;6.73;;;;;;;25.88;67.79;97710.22;4202127;28;20669;-81
2022/08/05 00:04:13;;;;;;;7.37;6.70;;;;;;;25.85;67.48;97711.44;4222925;28;21283;-81
2022/08/05 00:06:17;;;;;;;9.23;6.53;;;;;;;25.82;68.15;97706.53;4203940;28;20647;-81
2022/08/05 00:08:31;;;;;;;7.37;6.73;;;;;;;25.80;67.78;97705.06;4208139;28;20634;-81
2022/08/05 00:10:38;;;;;;;6.77;6.17;;;;;;;25.76;68.90;97698.53;4218166;28;20638;-81
2022/08/05 00:12:41;;;;;;;7.90;7.10;;;;;;;25.74;68.18;97698.72;4192361;28;20643;-81
2022/08/05 00:15:00;;;;;;;7.30;6.60;;;;;;;25.74;68.46;97692.53;4189922;28;20672;-81
2022/08/05 00:17:23;;;;;;;7.47;6.77;;;;;;;25.71;68.63;97698.34;4205641;28;21263;-81
2022/08/05 00:19:27;;;;;;;7.60;6.90;;;;;;;25.71;67.99;97696.47;4219670;28;20969;-81
2022/08/05 00:21:35;;;;;;;7.87;7.17;;;;;;;25.71;67.96;97695.66;4216783;28;20651;-81
2022/08/05 00:23:39;;;;;;;7.60;6.90;;;;;;;25.68;67.99;97704.09;4207247;28;21312;-82
2022/08/05 00:25:55;;;;;;;7.53;6.83;;;;;;;25.65;68.61;97699.97;4216513;28;20642;-81
2022/08/05 00:27:59;;;;;;;8.00;7.20;;;;;;;25.65;69.04;97710.66;4190763;28;21031;-80
2022/08/05 00:30:04;;;;;;;9.10;7.70;;;;;;;25.63;68.03;97702.00;4188858;28;20627;-81
2022/08/05 00:32:13;;;;;;;7.13;6.43;;;;;;;25.62;67.67;97713.72;4206459;28;20634;-81
2022/08/05 00:34:17;;;;;;;7.33;6.63;;;;;;;25.59;68.32;97708.78;4199995;28;21020;-81
2022/08/05 00:36:40;;;;;;;7.50;6.70;;;;;;;25.56;69.04;97716.41;4207918;28;20659;-80
2022/08/05 00:39:03;;;;;;;7.13;6.43;;;;;;;25.53;68.59;97706.13;4205737;28;20637;-81
2022/08/05 00:41:06;;;;;;;7.67;6.97;;;;;;;25.52;69.52;97712.50;4191480;28;20658;-81
2022/08/05 00:43:14;;;;;;;7.13;6.53;;;;;;;25.49;68.96;97710.22;4190417;28;20643;-81
2022/08/05 00:45:18;;;;;;;8.27;7.50;;;;;;;25.43;69.15;97707.56;4215183;28;20637;-81
2022/08/05 00:47:41;;;;;;;8.07;7.37;;;;;;;25.37;68.91;97705.72;4190940;28;20662;-81
2022/08/05 00:50:05;;;;;;;7.47;6.87;;;;;;;25.31;69.28;97709.22;4189324;28;20636;-81
2022/08/05 00:52:08;;;;;;;7.80;6.37;;;;;;;25.26;70.57;97709.81;4206030;28;21199;-81
2022/08/05 00:54:13;;;;;;;7.40;6.70;;;;;;;25.21;70.13;97714.97;4191268;28;21280;-81
2022/08/05 00:56:19;;;;;;;7.97;7.17;;;;;;;25.19;70.61;97722.34;4206693;28;20636;-81
2022/08/05 00:58:25;;;;;;;7.40;6.60;;;;;;;25.21;70.75;97716.78;4203686;28;20631;-81
2022/08/05 01:00:31;;;;;;;8.23;7.53;;;;;;;25.20;69.58;97726.66;4195969;28;20636;-81
2022/08/05 01:02:36;;;;;;;7.40;6.80;;;;;;;25.17;69.39;97727.06;4211201;28;20674;-81
2022/08/05 01:04:39;;;;;;;7.20;6.60;;;;;;;25.17;69.88;97729.75;4221280;28;21006;-81
2022/08/05 01:06:44;;;;;;;7.63;6.83;;;;;;;25.13;69.86;97721.53;4208841;28;21334;-81
2022/08/05 01:08:51;;;;;;;6.93;6.30;;;;;;;25.09;69.77;97728.28;4220206;28;20680;-81
2022/08/05 01:10:56;;;;;;;8.33;7.63;;;;;;;25.02;70.01;97725.63;4196774;28;21308;-81
2022/08/05 01:13:06;;;;;;;7.70;7.10;;;;;;;24.96;69.39;97755.75;4194284;28;21254;-81
2022/08/05 01:15:29;;;;;;;8.93;7.70;;;;;;;24.89;69.59;97765.59;4208762;28;20648;-81
2022/08/05 01:17:45;;;;;;;7.87;7.17;;;;;;;24.85;70.26;97772.38;4196416;28;20642;-81
2022/08/05 01:20:03;;;;;;;7.43;6.83;;;;;;;24.80;70.18;97760.66;4193870;28;20628;-80
2022/08/05 01:22:25;;;;;;;7.47;6.73;;;;;;;24.76;71.22;97759.38;4227596;28;20665;-81
2022/08/05 01:24:45;;;;;;;7.27;6.67;;;;;;;24.74;71.55;97764.13;4209264;28;20675;-81
2022/08/05 01:26:59;;;;;;;7.70;7.00;;;;;;;24.69;71.99;97770.06;4188562;28;21030;-81
2022/08/05 01:29:29;;;;;;;7.87;7.07;;;;;;;24.63;70.64;97772.69;4206896;28;20674;-81
2022/08/05 01:31:39;;;;;;;8.00;7.20;;;;;;;24.55;71.89;97767.56;4206524;28;20638;-81
2022/08/05 01:33:50;;;;;;;7.80;7.00;;;;;;;24.48;70.88;97772.03;4227999;27;21243;-81
2022/08/05 01:35:56;;;;;;;8.43;7.60;;;;;;;24.46;71.48;97770.56;4207479;28;20641;-81
2022/08/05 01:38:02;;;;;;;7.97;7.30;;;;;;;24.43;71.58;97776.28;4221672;27;21254;-81
2022/08/05 01:40:07;;;;;;;7.23;6.53;;;;;;;24.40;71.02;97774.88;4206948;28;20635;-81
2022/08/05 01:42:13;;;;;;;7.60;7.00;;;;;;;24.38;71.89;97781.41;4210395;28;20666;-81
2022/08/05 01:44:18;;;;;;;7.47;6.87;;;;;;;24.36;70.91;97786.13;4193908;28;20627;-81
2022/08/05 01:46:29;;;;;;;7.90;7.20;;;;;;;24.38;71.30;97792.88;4211752;28;20658;-81
2022/08/05 01:48:48;;;;;;;7.40;6.80;;;;;;;24.36;71.85;97778.13;4211658;28;20634;-80
2022/08/05 01:50:52;;;;;;;7.90;7.00;;;;;;;24.31;71.55;97781.34;4211145;28;21456;-80
2022/08/05 01:52:57;;;;;;;8.63;7.83;;;;;;;24.25;71.12;97791.97;4226415;28;20993;-80
2022/08/05 01:55:03;;;;;;;10.53;7.60;;;;;;;24.17;71.62;97792.94;4207641;28;20660;-80
2022/08/05 01:57:09;;;;;;;7.43;6.73;;;;;;;24.17;72.04;97795.59;4190517;28;21247;-80
2022/08/05 01:59:34;;;;;;;10.00;7.30;;;;;;;24.10;72.37;97795.75;4224279;28;20689;-80
2022/08/05 02:01:39;;;;;;;9.13;8.33;;;;;;;24.03;73.25;97794.91;4209022;28;20649;-80
2022/08/05 02:03:45;;;;;;;7.70;7.00;;;;;;;24.01;73.58;97797.78;4209383;28;21274;-80
2022/08/05 02:05:49;;;;;;;7.70;7.00;;;;;;;24.01;73.10;97810.25;4211706;28;20653;-80
2022/08/05 02:07:57;;;;;;;8.50;7.70;;;;;;;24.04;73.67;97815.22;4222848;27;20662;-80
2022/08/05 02:10:04;;;;;;;7.60;7.00;;;;;;;24.07;73.76;97820.16;4210767;28;20640;-80
2022/08/05 02:12:13;;;;;;;8.30;7.50;;;;;;;24.07;73.77;97814.81;4211227;28;20656;-80
2022/08/05 02:14:21;;;;;;;7.20;6.60;;;;;;;24.08;73.71;97805.81;4207072;28;20645;-80
2022/08/05 02:16:28;;;;;;;8.57;7.77;;;;;;;24.12;72.80;97817.75;4223324;27;20626;-80
2022/08/05 02:18:36;;;;;;;7.90;7.10;;;;;;;24.16;73.25;97823.31;4208949;28;20747;-80
2022/08/05 02:20:47;;;;;;;7.23;6.53;;;;;;;24.16;73.20;97817.97;4222229;28;20647;-80
2022/08/05 02:22:56;;;;;;;7.43;6.83;;;;;;;24.15;73.52;97813.66;4205745;28;20652;-80
2022/08/05 02:25:03;;;;;;;7.83;7.13;;;;;;;24.12;73.35;97807.09;4220272;28;20638;-80
2022/08/05 02:27:08;;;;;;;7.53;6.83;;;;;;;24.08;73.04;97805.81;4204545;28;20753;-80
2022/08/05 02:29:13;;;;;;;7.57;6.97;;;;;;;23.99;73.50;97796.31;4222095;27;20686;-80
2022/08/05 02:31:29;;;;;;;8.67;7.30;;;;;;;23.96;73.31;97799.38;4207543;28;20633;-80
2022/08/05 02:33:41;;;;;;;7.57;6.87;;;;;;;23.92;73.87;97800.75;4207426;28;20633;-81
2022/08/05 02:35:45;;;;;;;7.50;6.80;;;;;;;23.89;73.49;97804.66;4202926;28;20641;-80
2022/08/05 02:38:01;;;;;;;7.70;7.00;;;;;;;23.92;73.83;97801.59;4205835;28;20634;-80
2022/08/05 02:40:05;;;;;;;7.63;6.83;;;;;;;23.93;74.38;97799.75;4206497;28;21036;-80
2022/08/05 02:42:11;;;;;;;7.80;7.00;;;;;;;23.91;74.55;97805.28;4217147;28;21302;-80
2022/08/05 02:44:29;;;;;;;7.67;6.87;;;;;;;23.89;74.86;97812.66;4189434;28;20638;-80
2022/08/05 02:46:32;;;;;;;9.03;7.07;;;;;;;23.87;74.29;97809.34;4217710;28;20630;-80
2022/08/05 02:48:38;;;;;;;7.87;7.17;;;;;;;23.92;74.02;97816.75;4205436;28;20748;-80
2022/08/05 02:50:49;;;;;;;7.60;6.90;;;;;;;23.89;74.20;97823.31;4205736;28;21383;-80
2022/08/05 02:52:53;;;;;;;8.50;7.73;;;;;;;23.86;74.41;97814.88;4190373;28;20687;-80
2022/08/05 02:54:58;;;;;;;7.27;6.67;;;;;;;23.85;74.04;97807.91;4195424;28;20715;-81
2022/08/05 02:57:10;;;;;;;8.13;7.13;;;;;;;23.85;74.50;97810.56;4218317;27;20641;-80
2022/08/05 02:59:34;;;;;;;11.43;8.00;;;;;;;23.91;74.58;97804.47;4217556;28;20634;-81
2022/08/05 03:01:57;;;;;;;7.70;6.80;;;;;;;23.93;73.22;97815.75;4221121;28;21018;-80
2022/08/05 03:04:03;;;;;;;7.60;7.00;;;;;;;23.94;73.22;97818.22;4203678;28;20652;-80
2022/08/05 03:06:18;;;;;;;8.20;7.50;;;;;;;23.92;73.91;97816.75;4191766;28;20651;-80
2022/08/05 03:08:42;;;;;;;7.83;6.97;;;;;;;23.88;73.69;97816.34;4220652;27;20681;-81
2022/08/05 03:10:45;;;;;;;7.43;6.73;;;;;;;23.89;73.68;97817.16;4190268;28;20635;-80
2022/08/05 03:13:12;;;;;;;9.13;6.67;;;;;;;23.85;74.87;97813.25;4192197;28;20637;-80
2022/08/05 03:15:20;;;;;;;7.20;6.60;;;;;;;23.82;75.41;97827.75;4221609;28;20690;-80
2022/08/05 03:17:26;;;;;;;7.90;7.10;;;;;;;23.83;74.91;97816.09;4219413;28;20640;-80
2022/08/05 03:19:31;;;;;;;7.37;6.67;;;;;;;23.86;75.00;97820.19;4205218;28;20633;-80
2022/08/05 03:21:38;;;;;;;7.63;7.03;;;;;;;23.87;73.99;97819.19;4209335;28;20639;-80
2022/08/05 03:23:51;;;;;;;7.57;6.83;;;;;;;23.89;74.41;97828.66;4193305;28;20759;-80
2022/08/05 03:25:55;;;;;;;7.10;6.40;;;;;;;23.88;74.29;97842.97;4210856;28;21231;-80
2022/08/05 03:28:18;;;;;;;7.60;7.00;;;;;;;23.85;73.84;97832.72;4208257;28;20621;-80
2022/08/05 03:30:21;;;;;;;7.40;6.70;;;;;;;23.85;73.87;97834.56;4190374;28;21296;-80
2022/08/05 03:32:36;;;;;;;7.40;6.70;;;;;;;23.82;74.96;97827.75;4209926;28;20728;-80
2022/08/05 03:34:41;;;;;;;8.20;6.90;;;;;;;23.82;74.29;97840.28;4191101;28;20637;-80
2022/08/05 03:36:53;;;;;;;8.10;7.00;;;;;;;23.87;74.02;97851.97;4190068;28;20685;-80
2022/08/05 03:38:56;;;;;;;6.80;6.10;;;;;;;23.89;74.27;97862.44;4222083;28;20645;-80
2022/08/05 03:40:59;;;;;;;16.80;7.30;;;;;;;23.88;74.32;97876.81;4205293;28;20625;-80
2022/08/05 03:43:10;;;;;;;7.63;6.93;;;;;;;23.84;74.08;97894.19;4205762;28;20672;-80
2022/08/05 03:45:33;;;;;;;7.80;7.10;;;;;;;23.80;74.46;97891.09;4222888;28;20705;-80
2022/08/05 03:47:56;;;;;;;7.47;6.87;;;;;;;23.79;74.65;97878.78;4191426;28;20683;-80
2022/08/05 03:50:01;;;;;;;7.57;6.87;;;;;;;23.85;75.00;97877.19;4204594;28;21011;-80
2022/08/05 03:52:08;;;;;;;7.43;6.73;;;;;;;23.75;75.24;97858.03;4207207;28;21254;-80
2022/08/05 03:54:35;;;;;;;12.37;7.90;;;;;;;23.65;74.96;97862.03;4206111;28;20655;-80
2022/08/05 03:56:59;;;;;;;7.67;6.53;;;;;;;23.59;75.21;97876.94;4206783;28;20691;-80
2022/08/05 03:59:26;;;;;;;8.13;7.43;;;;;;;23.54;76.21;97887.31;4202144;28;20779;-80
2022/08/05 04:01:49;;;;;;;7.53;6.90;;;;;;;23.53;75.42;97877.69;4187592;28;20676;-80
2022/08/05 04:03:54;;;;;;;7.90;7.10;;;;;;;23.52;75.93;97878.69;4217226;28;21011;-80
2022/08/05 04:06:14;;;;;;;8.27;7.40;;;;;;;23.48;75.90;97879.25;4205235;28;20656;-80
2022/08/05 04:08:17;;;;;;;7.73;6.60;;;;;;;23.50;75.27;97875.41;4198188;28;20700;-81
2022/08/05 04:10:38;;;;;;;7.93;6.83;;;;;;;23.49;76.28;97856.94;4205462;28;20719;-81
2022/08/05 04:12:42;;;;;;;7.60;6.70;;;;;;;23.48;75.98;97865.94;4190723;28;21340;-81
2022/08/05 04:14:44;;;;;;;7.73;6.93;;;;;;;23.46;76.27;97852.81;4207006;28;20653;-81
2022/08/05 04:16:48;;;;;;;7.53;6.73;;;;;;;23.44;75.71;97857.50;4205918;28;20630;-81
2022/08/05 04:18:51;;;;;;;10.70;6.40;;;;;;;23.46;76.21;97846.66;4205683;28;20629;-81
2022/08/05 04:20:58;;;;;;;7.63;6.93;;;;;;;23.44;75.53;97848.69;4207406;28;20679;-80
2022/08/05 04:23:02;;;;;;;9.13;6.47;;;;;;;23.47;75.04;97854.47;4217805;28;20705;-81
2022/08/05 04:25:07;;;;;;;9.23;8.40;;;;;;;23.52;75.74;97857.38;4206739;28;21126;-80
2022/08/05 04:27:13;;;;;;;7.17;6.47;;;;;;;23.54;75.51;97850.00;4221178;28;21037;-81
2022/08/05 04:29:18;;;;;;;8.30;6.93;;;;;;;23.58;76.02;97861.94;4203073;28;20617;-81
2022/08/05 04:31:21;;;;;;;7.50;6.80;;;;;;;23.61;76.07;97860.75;4188265;28;21213;-81
2022/08/05 04:33:29;;;;;;;10.83;6.97;;;;;;;23.65;75.63;97862.88;4218348;28;20632;-81
2022/08/05 04:35:53;;;;;;;7.20;6.50;;;;;;;23.72;74.96;97880.56;4207556;28;20633;-81
2022/08/05 04:38:17;;;;;;;7.03;6.40;;;;;;;23.81;75.06;97883.91;4209381;28;20997;-81
2022/08/05 04:40:20;;;;;;;8.07;6.67;;;;;;;23.87;74.74;97901.81;4197830;28;20653;-81
2022/08/05 04:42:24;;;;;;;7.27;6.57;;;;;;;23.88;75.11;97916.78;4204505;28;21269;-81
2022/08/05 04:44:27;;;;;;;6.77;6.17;;;;;;;23.95;74.82;97944.31;4207831;28;20735;-81
2022/08/05 04:46:32;;;;;;;7.43;6.77;;;;;;;23.97;75.56;97967.09;4214853;28;20734;-80
2022/08/05 04:48:35;;;;;;;7.43;6.43;;;;;;;23.95;76.29;97973.63;4210806;28;21176;-81
2022/08/05 04:50:40;;;;;;;7.57;6.83;;;;;;;23.88;75.58;97978.09;4192614;28;20720;-81
2022/08/05 04:53:03;;;;;;;9.30;6.80;;;;;;;23.83;75.65;97994.63;4211582;28;21284;-81
2022/08/05 04:55:11;;;;;;;7.60;6.90;;;;;;;23.79;76.86;97998.69;4211202;28;20698;-81
2022/08/05 04:57:17;;;;;;;7.30;6.60;;;;;;;23.78;76.06;98005.03;4211025;28;20624;-81
2022/08/05 04:59:21;;;;;;;6.87;6.37;;;;;;;23.79;76.97;98017.34;4210157;28;20664;-80
2022/08/05 05:01:40;;;;;;;7.53;6.83;;;;;;;23.78;76.28;98018.34;4194939;28;20621;-81
2022/08/05 05:04:04;;;;;;;7.33;6.60;;;;;;;23.77;77.25;98032.69;4189802;28;20692;-81
2022/08/05 05:06:10;;;;;;;8.70;7.00;;;;;;;23.79;76.64;98037.84;4221002;28;20661;-81
2022/08/05 05:08:33;;;;;;;8.13;6.97;;;;;;;23.78;75.35;98045.00;4194032;28;20697;-81
2022/08/05 05:10:41;;;;;;;7.17;6.47;;;;;;;23.80;76.34;98050.97;4209450;28;20636;-81
2022/08/05 05:12:58;;;;;;;8.10;7.30;;;;;;;23.81;77.14;98057.13;4211123;28;21120;-81
2022/08/05 05:15:05;;;;;;;7.40;6.70;;;;;;;23.80;77.10;98074.13;4208237;28;20663;-81
2022/08/05 05:17:13;;;;;;;8.97;7.13;;;;;;;23.83;77.21;98073.75;4222832;27;21302;-81
2022/08/05 05:19:16;;;;;;;8.33;7.30;;;;;;;23.84;77.22;98064.75;4210420;28;20639;-81
2022/08/05 05:21:25;;;;;;;8.07;6.90;;;;;;;23.90;77.54;98062.16;4208349;28;20677;-81
2022/08/05 05:23:29;;;;;;;10.23;7.17;;;;;;;23.93;76.75;98069.75;4205930;28;20724;-81
2022/08/05 05:25:53;;;;;;;9.07;7.60;;;;;;;23.98;76.96;98075.38;4192799;28;21422;-81
2022/08/05 05:27:58;;;;;;;7.73;6.93;;;;;;;24.05;76.94;98086.09;4205587;28;21015;-81
2022/08/05 05:30:01;;;;;;;8.67;7.27;;;;;;;24.13;76.34;98099.31;4211252;28;20633;-81
2022/08/05 05:32:07;;;;;;;8.53;7.10;;;;;;;24.18;76.40;98095.91;4205688;28;20633;-81
2022/08/05 05:34:17;;;;;;;7.97;7.27;;;;;;;24.26;77.35;98109.09;4223497;28;20626;-81
2022/08/05 05:36:29;;;;;;;7.80;6.93;;;;;;;24.41;76.10;98127.78;4202992;28;21235;-81
2022/08/05 05:38:33;;;;;;;9.70;7.10;;;;;;;24.56;76.37;98131.22;4210263;28;20739;-81
2022/08/05 05:40:36;;;;;;;14.80;7.10;;;;;;;24.66;76.43;98121.88;4192612;28;20683;-81
2022/08/05 05:42:47;;;;;;;10.33;7.00;;;;;;;24.88;74.73;98118.16;4220397;28;20632;-81
2022/08/05 05:44:51;;;;;;;7.60;6.90;;;;;;;25.13;74.62;98110.38;4223627;28;20659;-81
2022/08/05 05:47:01;;;;;;;8.00;7.20;;;;;;;25.40;73.96;98133.59;4208773;28;20649;-81
2022/08/05 05:49:15;;;;;;;8.20;6.87;;;;;;;25.67;73.63;98130.09;4191023;28;21203;-80
2022/08/05 05:51:25;;;;;;;7.43;6.50;;;;;;;25.96;73.03;98122.63;4218502;28;20674;-82
2022/08/05 05:53:30;;;;;;;7.87;7.00;;;;;;;26.21;72.32;98129.91;4203311;28;21407;-80
2022/08/05 05:55:53;;;;;;;12.00;6.50;;;;;;;26.53;71.31;98133.75;4204670;28;20622;-81
2022/08/05 05:58:06;;;;;;;12.20;6.60;;;;;;;26.78;70.37;98141.00;4208382;28;20636;-81
2022/08/05 06:00:14;;;;;;;7.87;6.53;;;;;;;26.98;69.93;98133.84;4192852;28;20681;-81
2022/08/05 06:02:18;;;;;;;8.80;6.17;;;;;;;27.19;68.95;98137.13;4219641;28;20648;-80
2022/08/05 06:04:39;;;;;;;7.80;6.53;;;;;;;27.48;68.58;98142.84;4208461;28;20643;-80
2022/08/05 06:06:45;;;;;;;8.33;6.20;;;;;;;27.74;68.08;98137.47;4207202;28;20696;-80
2022/08/05 06:08:51;;;;;;;6.60;5.63;;;;;;;27.98;67.70;98139.47;4221419;27;20641;-81
2022/08/05 06:10:55;;;;;;;6.73;6.03;;;;;;;28.27;67.92;98143.31;4205438;28;20634;-81
2022/08/05 06:12:58;;;;;;;8.03;6.00;;;;;;;28.57;67.14;98149.75;4226323;28;20717;-81
2022/08/05 06:15:04;;;;;;;10.50;5.50;;;;;;;28.84;66.23;98153.97;4212212;28;20642;-84
2022/08/05 06:17:10;;;;;;;10.13;6.07;;;;;;;29.12;65.63;98153.34;4211863;28;20638;-82
2022/08/05 06:19:33;;;;;;;6.87;5.40;;;;;;;29.41;64.48;98162.59;4208175;28;20617;-82
2022/08/05 06:21:37;;;;;;;5.47;4.97;;;;;;;29.65;63.50;98162.56;4195866;28;20719;-82
2022/08/05 06:23:52;;;;;;;7.90;5.30;;;;;;;29.89;62.26;98162.59;4194730;28;20627;-82
2022/08/05 06:25:56;;;;;;;7.90;5.33;;;;;;;30.13;62.56;98169.75;4196220;28;21218;-83
2022/08/05 06:28:15;;;;;;;6.40;5.07;;;;;;;30.37;60.92;98179.63;4196717;28;20635;-82
2022/08/05 06:30:25;;;;;;;6.70;4.90;;;;;;;30.57;61.50;98175.66;4197068;28;20682;-83
2022/08/05 06:32:29;;;;;;;5.00;4.50;;;;;;;30.70;60.82;98161.97;4206083;28;20702;-82
2022/08/05 06:34:33;;;;;;;14.03;6.17;;;;;;;30.87;60.94;98154.88;4188353;28;21113;-82
2022/08/05 06:36:36;;;;;;;5.37;4.67;;;;;;;31.09;59.53;98148.75;4188948;28;20668;-83
2022/08/05 06:39:00;;;;;;;6.67;4.70;;;;;;;31.32;58.81;98148.78;4223670;28;21205;-81
2022/08/05 06:41:06;;;;;;;6.03;4.60;;;;;;;31.41;58.88;98140.19;4205154;28;21006;-82
2022/08/05 06:43:10;;;;;;;8.37;4.67;;;;;;;31.64;58.12;98132.06;4188108;28;20634;-82
2022/08/05 06:45:34;;;;;;;5.17;4.33;;;;;;;31.84;57.30;98129.81;4219439;28;20639;-83
2022/08/05 06:47:57;;;;;;;5.13;4.50;;;;;;;31.94;56.78;98126.31;4211616;28;20661;-82
2022/08/05 06:50:20;;;;;;;5.60;4.60;;;;;;;32.01;55.38;98121.59;4189539;28;21294;-82
2022/08/05 06:52:24;;;;;;;7.03;4.13;;;;;;;32.00;55.91;98119.94;4199340;28;20692;-82
2022/08/05 06:54:39;;;;;;;4.90;3.90;;;;;;;32.19;56.27;98126.00;4211983;28;20646;-82
2022/08/05 06:56:42;;;;;;;4.17;3.80;;;;;;;32.36;55.52;98131.25;4208546;28;20619;-82
2022/08/05 06:59:07;;;;;;;5.80;4.20;;;;;;;32.57;55.87;98138.72;4205757;28;20627;-82
2022/08/05 07:01:15;;;;;;;6.93;4.40;;;;;;;32.80;55.04;98149.41;4208733;28;20610;-82
2022/08/05 07:03:23;;;;;;;5.00;3.90;;;;;;;32.88;54.44;98140.91;4199359;28;20631;-82
2022/08/05 07:05:34;;;;;;;4.70;3.60;;;;;;;33.02;54.00;98148.50;4210843;28;21241;-82
2022/08/05 07:07:39;;;;;;;4.20;3.80;;;;;;;33.13;53.56;98153.03;4206179;28;20667;-82
2022/08/05 07:09:46;;;;;;;4.50;3.73;;;;;;;33.17;52.25;98151.47;4192208;28;20636;-82
2022/08/05 07:11:57;;;;;;;5.50;3.70;;;;;;;33.17;51.70;98139.81;4203746;28;21225;-82
2022/08/05 07:16:50;;;;;;;5.13;3.43;;;;;;;33.47;52.69;98149.31;4206027;28;20635;-82
2022/08/05 07:19:14;;;;;;;5.23;3.20;;;;;;;33.75;51.85;98147.28;4189118;28;21009;-90
2022/08/05 07:21:37;;;;;;;3.60;3.30;;;;;;;33.33;52.18;98149.84;4191214;28;20648;-85
2022/08/05 07:24:01;;;;;;;5.50;3.63;;;;;;;32.86;52.23;98157.38;4191942;28;20620;-85
2022/08/05 07:26:04;;;;;;;3.97;3.40;;;;;;;32.63;53.30;98147.75;4221372;28;21265;-86
2022/08/05 07:28:08;;;;;;;4.10;3.70;;;;;;;32.51;53.48;98150.50;4191064;28;21088;-86
2022/08/05 07:30:13;;;;;;;3.40;3.10;;;;;;;32.43;52.88;98148.19;4188158;28;20632;-86
2022/08/05 07:32:35;;;;;;;4.53;3.10;;;;;;;33.03;52.12;98160.13;4220548;28;20636;-86
2022/08/05 07:34:38;;;;;;;3.60;3.20;;;;;;;33.20;51.02;98178.03;4218769;28;20637;-85
2022/08/05 07:36:44;;;;;;;4.77;3.80;;;;;;;33.11;51.30;98192.22;4216517;27;20899;-86
2022/08/05 07:38:53;;;;;;;3.60;3.13;;;;;;;33.27;52.21;98189.50;4218256;28;20696;-86
2022/08/05 07:40:57;;;;;;;4.13;3.20;;;;;;;33.34;51.96;98190.19;4205162;28;21018;-84
2022/08/05 07:43:18;;;;;;;8.57;3.63;;;;;;;33.25;52.34;98190.84;4220644;27;20639;-85
2022/08/05 07:45:23;;;;;;;3.93;3.40;;;;;;;33.53;51.74;98184.31;4220361;28;20650;-86
2022/08/05 07:47:47;;;;;;;3.80;3.40;;;;;;;33.93;51.47;98169.50;4212788;28;20702;-86
2022/08/05 07:49:57;;;;;;;4.57;3.70;;;;;;;34.17;50.86;98168.22;4209460;28;21340;-86
2022/08/05 07:52:01;;;;;;;4.30;3.70;;;;;;;34.05;51.19;98167.50;4205935;28;20631;-85
2022/08/05 07:54:05;;;;;;;5.10;3.60;;;;;;;33.97;51.48;98167.94;4193312;28;20674;-86
2022/08/05 07:56:11;;;;;;;4.17;3.73;;;;;;;34.14;51.80;98176.03;4206425;28;20661;-86
2022/08/05 07:58:34;;;;;;;4.57;3.63;;;;;;;34.09;51.76;98184.09;4220978;27;20703;-85
2022/08/05 08:00:58;;;;;;;4.87;3.60;;;;;;;34.29;51.36;98185.19;4222989;27;21220;-86
2022/08/05 08:03:03;;;;;;;5.73;5.13;;;;;;;34.26;52.24;98188.38;4192670;28;20626;-85
2022/08/05 08:05:17;;;;;;;4.03;3.63;;;;;;;34.34;50.56;98177.09;4212337;28;20619;-85
2022/08/05 08:07:21;;;;;;;3.27;2.97;;;;;;;34.39;50.79;98174.47;4210016;28;20700;-86
2022/08/05 08:09:26;;;;;;;5.30;3.57;;;;;;;34.55;49.20;98184.44;4208167;28;20631;-86
2022/08/05 08:11:31;;;;;;;5.80;4.00;;;;;;;34.60;50.04;98184.53;4205353;28;21024;-87
2022/08/05 08:13:54;;;;;;;3.50;3.20;;;;;;;34.68;50.34;98181.34;4225029;27;21048;-85
2022/08/05 08:16:03;;;;;;;3.90;3.00;;;;;;;34.80;49.79;98193.69;4193003;28;20979;-86
2022/08/05 08:18:27;;;;;;;4.90;3.77;;;;;;;34.58;50.10;98179.34;4225399;28;20641;-85
2022/08/05 08:20:31;;;;;;;4.10;3.10;;;;;;;34.56;49.00;98183.38;4209653;28;20661;-85
2022/08/05 08:22:55;;;;;;;3.67;3.37;;;;;;;34.62;49.49;98180.47;4207514;28;20692;-86
2022/08/05 08:24:59;;;;;;;3.50;2.67;;;;;;;34.70;49.85;98187.34;4207077;28;20626;-85
2022/08/05 08:27:06;;;;;;;3.50;3.20;;;;;;;34.34;46.82;98175.22;4213194;28;20678;-86
2022/08/05 08:29:10;;;;;;;4.27;2.73;;;;;;;34.28;48.83;98182.72;4208975;28;20637;-85
2022/08/05 08:31:33;;;;;;;5.93;2.80;;;;;;;34.62;47.61;98182.38;4207471;28;20634;-87
2022/08/05 08:33:39;;;;;;;3.20;2.90;;;;;;;34.67;47.78;98180.56;4210753;28;20704;-86
2022/08/05 08:35:43;;;;;;;3.23;2.93;;;;;;;34.69;47.39;98175.69;4190605;28;20688;-84
2022/08/05 08:38:06;;;;;;;5.30;3.17;;;;;;;34.50;46.89;98178.97;4200421;28;20644;-84
2022/08/05 08:40:10;;;;;;;3.50;3.20;;;;;;;34.57;48.43;98177.72;4199956;28;20631;-84
2022/08/05 08:42:14;;;;;;;2.87;2.53;;;;;;;34.76;47.92;98175.47;4210518;28;20630;-84
2022/08/05 08:44:37;;;;;;;3.70;2.80;;;;;;;34.62;46.84;98172.34;4222007;28;20630;-84
2022/08/05 08:47:03;;;;;;;3.20;2.90;;;;;;;34.60;48.98;98171.78;4223492;28;20642;-84
2022/08/05 08:49:27;;;;;;;4.13;3.30;;;;;;;34.71;47.20;98178.13;4191955;28;20639;-84
2022/08/05 08:51:57;;;;;;;3.37;2.80;;;;;;;34.34;47.77;98167.09;4204236;28;20670;-84
2022/08/05 08:54:16;;;;;;;3.40;3.10;;;;;;;34.37;48.07;98165.75;4225747;28;20667;-84
2022/08/05 08:56:20;;;;;;;3.60;2.80;;;;;;;34.38;47.97;98170.13;4206641;28;21064;-84
2022/08/05 08:58:24;;;;;;;3.67;3.10;;;;;;;34.44;48.66;98166.44;4201705;28;20746;-84
2022/08/05 09:00:40;;;;;;;5.63;3.40;;;;;;;34.29;48.12;98152.66;4205650;28;20682;-84
2022/08/05 09:02:45;;;;;;;4.37;3.17;;;;;;;34.17;48.00;98165.50;4202876;28;20626;-84
2022/08/05 09:04:51;;;;;;;3.73;3.30;;;;;;;34.25;49.03;98154.25;4225919;28;21216;-84
2022/08/05 09:07:14;;;;;;;4.07;3.00;;;;;;;34.39;47.58;98171.78;4209135;28;21050;-84
2022/08/05 09:09:31;;;;;;;4.50;3.17;;;;;;;34.38;48.41;98161.97;4202118;28;20630;-85
2022/08/05 09:11:38;;;;;;;4.67;3.00;;;;;;;34.56;48.70;98150.84;4193577;28;21249;-84
2022/08/05 09:13:56;;;;;;;3.20;2.90;;;;;;;34.68;47.46;98146.09;4221188;28;20684;-84
2022/08/05 09:16:19;;;;;;;3.40;2.77;;;;;;;34.67;48.56;98147.16;4207575;28;20684;-84
2022/08/05 09:18:26;;;;;;;4.27;3.50;;;;;;;34.68;48.19;98144.19;4217633;28;21240;-84
2022/08/05 09:20:33;;;;;;;3.23;2.87;;;;;;;34.75;47.75;98141.28;4205225;28;20631;-84
2022/08/05 09:23:09;;;;;;;3.47;3.17;;;;;;;34.81;47.42;98141.09;4210033;28;20636;-85
2022/08/05 09:25:22;;;;;;;7.57;2.80;;;;;;;34.80;46.98;98126.69;4221122;28;20645;-84
2022/08/05 09:27:45;;;;;;;3.40;3.10;;;;;;;34.89;47.98;98122.47;4220934;28;21229;-84
2022/08/05 09:30:09;;;;;;;3.23;2.67;;;;;;;35.07;46.90;98130.25;4220664;28;21271;-84
2022/08/05 09:32:19;;;;;;;5.80;3.10;;;;;;;35.06;46.55;98123.19;4208822;28;20630;-84
2022/08/05 09:34:49;;;;;;;3.07;2.77;;;;;;;34.99;47.53;98119.88;4208438;28;20630;-84
2022/08/05 09:36:54;;;;;;;3.10;2.80;;;;;;;35.05;47.00;98104.47;4228375;28;20620;-84
2022/08/05 09:39:05;;;;;;;4.00;3.07;;;;;;;35.02;47.51;98116.63;4223360;27;20625;-84
2022/08/05 09:41:24;;;;;;;3.20;2.90;;;;;;;34.96;47.53;98095.16;4212648;28;20647;-84
2022/08/05 09:43:29;;;;;;;3.20;2.90;;;;;;;34.98;48.17;98099.22;4204113;28;20640;-84
2022/08/05 09:45:44;;;;;;;4.20;2.90;;;;;;;35.06;47.62;98087.06;4221787;27;20626;-84
2022/08/05 09:48:20;;;;;;;3.23;2.93;;;;;;;34.60;46.82;98082.28;4208129;28;20639;-84
2022/08/05 09:50:35;;;;;;;3.20;2.90;;;;;;;34.68;46.84;98086.44;4191610;28;20615;-84
2022/08/05 09:52:57;;;;;;;4.90;2.83;;;;;;;34.62;47.07;98076.63;4191762;28;20627;-84
2022/08/05 09:55:02;;;;;;;5.30;3.23;;;;;;;34.72;47.54;98082.94;4207457;28;20635;-84
2022/08/05 09:57:32;;;;;;;3.10;2.80;;;;;;;34.83;47.08;98085.47;4204700;28;20639;-84
2022/08/05 09:59:41;;;;;;;3.37;2.87;;;;;;;35.10;47.55;98082.78;4206587;28;21007;-84
2022/08/05 10:01:46;;;;;;;3.73;2.90;;;;;;;35.10;46.93;98080.06;4207403;28;20681;-84
2022/08/05 10:03:55;;;;;;;2.93;2.63;;;;;;;35.04;47.07;98081.91;4208039;28;20660;-85
2022/08/05 10:06:04;;;;;;;3.20;2.77;;;;;;;34.98;47.61;98074.00;4209719;28;21041;-84
2022/08/05 10:08:24;;;;;;;4.13;3.37;;;;;;;35.06;47.40;98078.94;4209898;28;20651;-84
2022/08/05 10:10:47;;;;;;;3.20;2.70;;;;;;;35.16;46.90;98081.75;4206120;28;20634;-84
2022/08/05 10:12:57;;;;;;;3.63;3.33;;;;;;;34.97;46.85;98084.03;4192714;28;20651;-84
2022/08/05 10:15:14;;;;;;;5.50;2.73;;;;;;;35.03;46.88;98085.72;4206427;28;20623;-84
2022/08/05 10:17:22;;;;;;;3.73;3.10;;;;;;;35.01;47.63;98081.63;4222924;28;20718;-84
2022/08/05 10:19:41;;;;;;;3.60;2.67;;;;;;;34.96;47.43;98074.25;4200530;28;20622;-84
2022/08/05 10:22:05;;;;;;;3.10;2.80;;;;;;;35.17;46.85;98083.34;4193092;28;20701;-84